Latest Coastal Weather Observations for Cape Otway

IDT60701

Issued at 2:21 am EST Sunday 2 August 2015 (issued every 10 minutes, with the page automatically refreshed every 10 minutes)

About coastal observations | Map of coastal stations | Coastal observations for TAS | Marine services | Other Formats
Station Details ID: 090015 Name: CAPE OTWAY LIGHTHOUSE Lat: -38.86 Lon: 143.51 Height: 82.0 m
Data from the previous 72 hours. | See also: Recent months at Cape Otway
Date/Time
EST
Temp

°C
Wind Pressure Rain
since 9am
mm
Weather Cloud Vis
km
Sea
Height
m
Swell
Dir
 
Speed
knots
Gust
knots
hPa Trend Height
m
Period
s
Dir
02/02:00am 8.5 NW 14 22 1012.7 - 0.0 - - - - - - -
02/01:30am 8.3 NW 13 21 1013.1 - 0.0 - - - - - - -
02/01:00am 8.3 NW 12 20 1013.2 - 0.0 - - - - - - -
02/12:30am 8.3 NW 12 19 1013.5 - 0.0 - - - - - - -
02/12:00am 8.2 NW 13 22 1014.0 - 0.0 - - - - - - -
 
Date/Time
EST
Temp

°C
Wind Pressure Rain
since 9am
mm
Weather Cloud Vis
km
Sea
Height
m
Swell
Dir
 
Speed
knots
Gust
knots
hPa Trend Height
m
Period
s
Dir
01/11:30pm 8.2 NW 12 20 1014.0 - 0.0 - - - - - - -
01/11:00pm 8.4 NW 13 22 1014.3 - 0.0 - - - - - - -
01/10:30pm 8.5 NW 13 20 1014.4 - 0.0 - - - - - - -
01/10:00pm 8.0 NW 10 16 1014.4 - 0.0 - - - - - - -
01/09:30pm 8.3 NW 11 18 1014.6 - 0.0 - - - - - - -
01/09:00pm 8.4 NW 12 17 1014.7 - 0.0 - - - - - - -
01/08:30pm 8.0 NW 10 16 1014.6 - 0.0 - - - - - - -
01/08:00pm 8.2 NW 11 18 1014.5 - 0.0 - - - - - - -
01/07:30pm 8.2 NW 9 14 1014.5 - 0.0 - - - - - - -
01/07:00pm 8.5 NW 9 13 1014.5 - 0.0 - - - - - - -
01/06:30pm 8.9 NW 9 12 1014.6 - 0.0 - - - - - - -
01/06:00pm 8.8 W 11 17 1014.4 - 0.0 - - - - - - -
01/05:52pm 8.8 W 17 27 1014.3 - 0.0 - - - - - - -
01/05:30pm 10.1 W 16 23 1014.0 - 0.0 - - - - - - -
01/05:00pm 9.8 WNW 14 20 1013.8 - 0.0 - - - - - - -
01/04:30pm 9.4 W 14 24 1013.8 - 0.0 - - - - - - -
01/04:00pm 10.1 W 16 23 1013.3 - 0.0 - - - - - - -
01/03:30pm 10.4 W 17 24 1013.1 - 0.0 - - - - - - -
01/03:00pm 10.7 W 15 21 1013.0 - 0.0 - - - - - - -
01/02:30pm 10.7 W 16 21 1012.9 - 0.0 - - - - - - -
01/02:00pm 10.8 W 17 24 1013.0 - 0.0 - - - - - - -
01/01:30pm 11.1 W 15 22 1013.0 - 0.0 - - - - - - -
01/01:00pm 11.0 W 16 24 1013.2 - 0.0 - - - - - - -
01/12:30pm 10.9 W 16 24 1013.4 - 0.0 - - - - - - -
01/12:00pm 10.7 W 17 23 1013.4 - 0.0 - - - - - - -
01/11:30am 10.3 W 16 24 1013.4 - 0.0 - - - - - - -
01/11:00am 10.0 W 17 24 1013.4 - 0.0 - - - - - - -
01/10:30am 9.9 WSW 19 28 1013.2 - 0.0 - - - - - - -
01/10:10am 10.0 WSW 18 28 1013.1 - 0.0 - - - - - - -
01/10:00am 9.8 WSW 18 27 1013.0 - 0.0 - - - - - - -
01/09:30am 9.7 WSW 20 30 1012.5 - 0.0 - - - - - - -
01/09:00am 9.6 WSW 23 33 1012.0 - 6.2 - - - - - - -
01/08:43am 9.5 WSW 22 32 1011.4 - 6.2 - - - - - - -
01/08:30am 9.4 WSW 22 31 1011.3 - 6.2 - - - - - - -
01/08:04am 9.4 WSW 22 33 1010.6 - 6.2 - - - - - - -
01/08:00am 9.4 WSW 22 30 1010.5 - 6.2 - - - - - - -
01/07:30am 9.0 WSW 18 30 1010.0 - 6.2 - - - - - - -
01/07:25am 8.4 W 15 30 1010.0 - 6.2 - - - - - - -
01/07:00am 8.4 W 19 27 1009.8 - 6.2 - - - - - - -
01/06:30am 8.3 WSW 26 38 1009.2 - 6.2 - - - - - - -
01/06:00am 8.7 WSW 21 31 1008.4 - 5.6 - - - - - - -
01/05:30am 8.4 WSW 26 37 1007.8 - 5.0 - - - - - - -
01/05:17am 9.2 WSW 20 33 1007.4 - 4.8 - - - - - - -
01/05:00am 9.1 W 22 29 1007.1 - 3.2 - - - - - - -
01/04:59am 9.3 WSW 22 29 1007.0 - 3.0 - - - - - - -
01/04:56am 10.0 WNW 20 33 1006.6 - 2.4 - - - - - - -
01/04:30am 10.0 NW 20 34 1005.3 - 1.6 - - - - - - -
01/04:00am 10.4 NNW 23 43 1004.4 - 0.6 - - - - - - -
01/03:57am 10.3 NNW 21 43 1004.5 - 0.4 - - - - - - -
01/03:37am 9.8 NNW 18 28 1004.7 - 0.4 - - - - - - -
01/03:30am 10.2 NNW 19 28 1004.9 - 0.0 - - - - - - -
01/03:00am 11.3 N 19 29 1005.2 - 0.0 - - - - - - -
01/02:30am 11.4 N 20 31 1005.5 - 0.0 - - - - - - -
01/02:00am 11.3 N 19 33 1005.8 - 0.0 - - - - - - -
01/01:30am 11.0 NNW 20 31 1006.5 - 0.0 - - - - - - -
01/01:00am 10.3 N 21 33 1007.0 - 0.0 - - - - - - -
01/12:30am 10.0 N 20 31 1007.6 - 0.0 - - - - - - -
01/12:00am 10.2 NNW 19 30 1008.6 - 0.0 - - - - - - -
 
Date/Time
EST
Temp

°C
Wind Pressure Rain
since 9am
mm
Weather Cloud Vis
km
Sea
Height
m
Swell
Dir
 
Speed
knots
Gust
knots
hPa Trend Height
m
Period
s
Dir
31/11:35pm 10.1 NNW 18 30 1009.0 - 0.0 - - - - - - -
31/11:30pm 9.9 N 18 27 1008.8 - 0.0 - - - - - - -
31/11:00pm 9.7 N 18 31 1009.5 - 0.0 - - - - - - -
31/10:30pm 9.4 N 15 25 1010.2 - 0.0 - - - - - - -
31/10:06pm 9.7 N 15 26 1010.6 - 0.0 - - - - - - -
31/10:00pm 9.4 N 13 21 1010.7 - 0.0 - - - - - - -
31/09:30pm 9.3 N 13 27 1011.3 - 0.0 - - - - - - -
31/09:00pm 8.8 N 8 13 1012.1 - 0.0 - - - - - - -
31/08:30pm 8.7 NNW 11 15 1013.2 - 0.0 - - - - - - -
31/08:00pm 8.6 NW 8 14 1013.6 - 0.0 - - - - - - -
31/07:30pm 8.9 NW 9 12 1014.1 - 0.0 - - - - - - -
31/07:00pm 8.6 NNW 9 15 1014.0 - 0.0 - - - - - - -
31/06:30pm 8.1 NNW 7 10 1013.7 - 0.0 - - - - - - -
31/06:00pm 7.7 NNW 6 9 1014.1 - 0.0 - - - - - - -
31/05:30pm 8.1 NW 6 10 1014.3 - 0.0 - - - - - - -
31/05:00pm 9.1 NW 7 12 1014.4 - 0.0 - - - - - - -
31/04:30pm 9.7 NW 7 13 1014.6 - 0.0 - - - - - - -
31/04:00pm 10.3 NW 9 14 1014.9 - 0.0 - - - - - - -
31/03:30pm 10.3 NW 10 19 1014.9 - 0.0 - - - - - - -
31/03:00pm 9.8 NW 11 16 1015.6 - 0.0 - - - - - - -
31/02:30pm 9.9 WNW 15 22 1015.8 - 0.0 - - - - - - -
31/02:00pm 10.1 NW 12 19 1016.4 - 0.0 - - - - - - -
31/01:30pm 9.6 WNW 12 19 1016.8 - 0.0 - - - - - - -
31/01:00pm 9.8 WNW 12 20 1017.4 - 0.0 - - - - - - -
31/12:30pm 10.2 NW 13 24 1017.9 - 0.0 - - - - - - -
31/12:00pm 10.8 NW 12 20 1018.7 - 0.0 - - - - - - -
31/11:30am 10.3 NW 12 20 1019.0 - 0.0 - - - - - - -
31/11:00am 9.8 NW 11 18 1019.4 - 0.0 - - - - - - -
31/10:30am 9.4 NW 11 17 1019.5 - 0.0 - - - - - - -
31/10:00am 8.6 NW 12 20 1019.7 - 0.0 - - - - - - -
31/09:30am 8.6 NW 11 17 1019.6 - 0.0 - - - - - - -
31/09:00am 8.5 NW 10 15 1019.7 - 4.8 - - - - - - -
31/08:30am 7.8 NW 9 14 1019.5 - 4.8 - - - - - - -
31/08:00am 6.3 NNW 10 12 1019.2 - 4.8 - - - - - - -
31/07:30am 6.5 NNW 11 15 1019.2 - 4.8 - - - - - - -
31/07:00am 6.2 NNW 10 13 1018.8 - 4.8 - - - - - - -
31/06:30am 7.4 NNW 11 20 1018.5 - 4.8 - - - - - - -
31/06:00am 8.4 WNW 12 20 1018.5 - 4.8 - - - - - - -
31/05:30am 9.0 WSW 12 17 1018.4 - 4.8 - - - - - - -
31/05:00am 9.3 WSW 16 27 1018.3 - 4.8 - - - - - - -
31/04:57am 9.7 W 15 27 1018.2 - 4.8 - - - - - - -
31/04:30am 9.3 W 15 21 1018.1 - 4.8 - - - - - - -
31/04:00am 9.5 W 13 19 1018.1 - 4.8 - - - - - - -
31/03:30am 9.4 W 13 19 1018.0 - 4.8 - - - - - - -
31/03:00am 9.4 W 12 19 1018.2 - 4.8 - - - - - - -
31/02:30am 9.4 WSW 14 19 1018.3 - 4.8 - - - - - - -
31/02:00am 9.2 WSW 13 20 1018.2 - 4.8 - - - - - - -
31/01:30am 9.2 WSW 14 19 1018.2 - 4.8 - - - - - - -
31/01:00am 9.1 WSW 18 28 1018.0 - 4.8 - - - - - - -
31/12:53am 9.4 WSW 18 28 1017.9 - 4.8 - - - - - - -
31/12:30am 9.0 WSW 11 17 1017.8 - 4.8 - - - - - - -
31/12:00am 9.7 WSW 16 23 1017.7 - 4.8 - - - - - - -
 
Date/Time
EST
Temp

°C
Wind Pressure Rain
since 9am
mm
Weather Cloud Vis
km
Sea
Height
m
Swell
Dir
 
Speed
knots
Gust
knots
hPa Trend Height
m
Period
s
Dir
30/11:30pm 9.4 SW 17 24 1017.4 - 4.8 - - - - - - -
30/11:00pm 9.3 WSW 18 27 1017.1 - 4.8 - - - - - - -
30/10:39pm 9.4 WSW 15 26 1016.7 - 4.8 - - - - - - -
30/10:30pm 9.2 SW 16 24 1016.8 - 4.8 - - - - - - -
30/10:17pm 9.6 SW 21 31 1016.7 - 4.8 - - - - - - -
30/10:00pm 10.0 WSW 20 28 1016.5 - 4.8 - - - - - - -
30/09:30pm 10.0 SW 21 28 1016.0 - 4.8 - - - - - - -
30/09:00pm 10.5 WSW 23 33 1015.3 - 4.8 - - - - - - -
30/08:30pm 10.4 WSW 22 33 1014.3 - 4.8 - - - - - - -
30/08:20pm 10.2 WSW 20 30 1014.2 - 4.8 - - - - - - -
30/08:00pm 10.0 W 22 30 1013.8 - 4.8 - - - - - - -
30/07:30pm 9.2 W 20 30 1013.4 - 4.8 - - - - - - -
30/07:22pm 9.1 W 20 30 1013.3 - 4.8 - - - - - - -
30/07:00pm 9.0 W 20 28 1012.9 - 4.6 - - - - - - -
30/06:30pm 9.2 W 21 32 1012.1 - 4.0 - - - - - - -
30/06:16pm 10.5 W 21 33 1011.9 - 1.0 - - - - - - -
30/06:14pm 10.3 W 23 33 1011.5 - 1.0 - - - - - - -
30/06:00pm 9.5 NW 17 27 1010.2 - 1.0 - - - - - - -
30/05:30pm 9.9 NNW 22 37 1008.7 - 0.4 - - - - - - -
30/05:00pm 9.9 NNW 25 37 1008.1 - 0.4 - - - - - - -
30/04:30pm 9.7 NNW 24 41 1008.4 - 0.4 - - - - - - -
30/04:27pm 9.6 NNW 22 38 1008.4 - 0.4 - - - - - - -
30/04:00pm 8.8 NNW 18 28 1008.8 - 0.4 - - - - - - -
30/03:30pm 9.7 NNW 20 32 1008.8 - 0.0 - - - - - - -
30/03:00pm 11.0 NNW 21 36 1009.0 - 0.0 - - - - - - -
30/02:30pm 11.0 NNW 20 33 1008.7 - 0.0 - - - - - - -
30/02:02pm 11.1 NNW 18 28 1009.8 - 0.0 - - - - - - -
30/02:00pm 10.8 NNW 19 28 1009.7 - 0.0 - - - - - - -
30/01:30pm 11.3 NNW 20 32 1010.3 - 0.0 - - - - - - -
30/01:00pm 11.2 N 22 34 1009.9 - 0.0 - - - - - - -
30/12:30pm 11.5 N 20 31 1010.9 - 0.0 - - - - - - -
30/12:00pm 11.4 N 21 33 1011.4 - 0.0 - - - - - - -
30/11:30am 11.4 N 20 35 1012.5 - 0.0 - - - - - - -
30/11:00am 10.0 N 18 30 1013.5 - 0.0 - - - - - - -
30/10:30am 9.8 N 16 27 1014.2 - 0.0 - - - - - - -
30/10:00am 8.3 N 19 29 1015.0 - 0.0 - - - - - - -
30/09:30am 9.4 N 20 31 1015.5 - 0.0 - - - - - - -
30/09:12am 9.5 NNW 18 32 1016.2 - 0.0 - - - - - - -
30/09:00am 9.5 NNW 16 25 1016.5 - 0.2 - - - - - - -
30/08:43am 9.5 NNW 16 26 1016.6 - 0.2 - - - - - - -
30/08:30am 9.3 N 16 25 1016.5 - 0.2 - - - - - - -
30/08:20am 9.3 N 15 25 1016.4 - 0.2 - - - - - - -
30/08:00am 9.0 N 14 23 1016.8 - 0.2 - - - - - - -
30/07:44am 9.0 NNW 15 25 1016.6 - 0.2 - - - - - - -
30/07:30am 8.9 NNW 16 23 1016.4 - 0.2 - - - - - - -
30/07:13am 8.9 N 18 29 1016.5 - 0.2 - - - - - - -
30/07:00am 8.9 N 17 25 1016.8 - 0.2 - - - - - - -
30/06:33am 9.0 N 18 28 1017.0 - 0.2 - - - - - - -
30/06:30am 9.2 N 19 28 1017.0 - 0.2 - - - - - - -
30/06:04am 9.3 N 18 28 1017.4 - 0.2 - - - - - - -
30/06:00am 9.1 N 18 26 1017.7 - 0.2 - - - - - - -
30/05:40am 8.9 N 17 27 1017.8 - 0.2 - - - - - - -
30/05:30am 8.9 N 18 27 1017.7 - 0.2 - - - - - - -
30/05:00am 8.8 N 17 27 1018.2 - 0.2 - - - - - - -
30/04:30am 8.9 N 19 30 1018.7 - 0.2 - - - - - - -
30/04:00am 8.8 N 17 33 1019.0 - 0.2 - - - - - - -
30/03:30am 8.7 NNW 18 28 1019.7 - 0.2 - - - - - - -
30/03:02am 8.9 NNW 16 27 1020.2 - 0.2 - - - - - - -
30/03:00am 8.8 N 16 24 1020.3 - 0.2 - - - - - - -
30/02:30am 8.7 N 17 27 1020.6 - 0.2 - - - - - - -

Other Formats:

Comma delimited format used in spreadsheet applications
http://www.bom.gov.au/fwo/IDT60701/IDT60701.94842.axf

JavaScript Object Notation format (JSON) in row-major order
http://www.bom.gov.au/fwo/IDT60701/IDT60701.94842.json